Time;durP1;ratioP1;P1;durP2;ratioP2;P2;SDS_P1;SDS_P2;PMS_P1;PMS_P2;Temp;Humidity;BMP_temperature;BMP_pressure;BME280_temperature;BME280_humidity;BME280_pressure;Samples;Min_cycle;Max_cycle;Signal;HPM_P1;HPM_P2
2021/10/28 00:13:37;;;;;;;61.10;6.63;;;;;;;;;;5102940;28;20031;-77
2021/10/28 00:16:20;;;;;;;20.48;5.93;;;;;;;;;;5115261;28;20093;-78
2021/10/28 00:18:50;;;;;;;19.77;6.75;;;;;;;;;;5112027;28;20069;-78
2021/10/28 00:21:15;;;;;;;37.30;6.53;;;;;;;;;;5094999;28;20459;-77
2021/10/28 00:23:43;;;;;;;22.42;6.55;;;;;;;;;;5093653;28;20070;-77
2021/10/28 00:26:11;;;;;;;55.58;6.88;;;;;;;;;;5095178;28;20040;-77
2021/10/28 00:28:37;;;;;;;43.38;6.88;;;;;;;;;;5094587;28;20474;-77
2021/10/28 00:31:05;;;;;;;14.82;5.60;;;;;;;;;;5094666;28;20031;-78
2021/10/28 00:33:31;;;;;;;97.35;6.90;;;;;;;;;;5094843;28;20432;-77
2021/10/28 00:35:59;;;;;;;13.68;6.10;;;;;;;;;;5094828;28;20036;-77
2021/10/28 00:38:26;;;;;;;67.40;7.40;;;;;;;;;;5094117;28;20512;-77
2021/10/28 00:40:52;;;;;;;177.52;8.85;;;;;;;;;;5094164;28;20118;-77
2021/10/28 00:43:17;;;;;;;29.55;7.70;;;;;;;;;;5094177;28;20047;-78
2021/10/28 00:45:43;;;;;;;49.47;7.03;;;;;;;;;;5094225;28;20109;-77
2021/10/28 00:48:09;;;;;;;42.33;7.45;;;;;;;;;;5094522;28;20036;-77
2021/10/28 00:50:34;;;;;;;61.50;7.47;;;;;;;;;;5094488;28;20089;-77
2021/10/28 00:53:00;;;;;;;26.35;7.00;;;;;;;;;;5094528;28;20030;-77
2021/10/28 00:55:26;;;;;;;20.40;6.97;;;;;;;;;;5092760;28;20112;-77
2021/10/28 00:57:52;;;;;;;104.57;8.25;;;;;;;;;;5094305;28;20052;-77
2021/10/28 01:00:19;;;;;;;28.90;6.55;;;;;;;;;;5094166;28;20063;-77
2021/10/28 01:02:45;;;;;;;37.20;6.95;;;;;;;;;;5094168;28;20062;-77
2021/10/28 01:05:11;;;;;;;9.88;5.80;;;;;;;;;;5094134;28;20058;-78
2021/10/28 01:07:37;;;;;;;38.92;7.03;;;;;;;;;;5094237;28;20095;-77
2021/10/28 01:10:03;;;;;;;26.13;6.68;;;;;;;;;;5093957;28;20500;-77
2021/10/28 01:12:28;;;;;;;29.80;6.93;;;;;;;;;;5093736;28;20080;-78
2021/10/28 01:14:55;;;;;;;11.00;6.40;;;;;;;;;;5094254;28;20526;-77
2021/10/28 01:17:22;;;;;;;10.35;6.95;;;;;;;;;;5094112;28;20393;-77
2021/10/28 01:19:50;;;;;;;16.35;6.20;;;;;;;;;;5075206;28;20032;-77
2021/10/28 01:22:16;;;;;;;19.88;6.28;;;;;;;;;;5072250;28;20024;-77
2021/10/28 01:24:41;;;;;;;11.32;6.45;;;;;;;;;;5074328;28;20513;-78
2021/10/28 01:27:08;;;;;;;46.80;6.63;;;;;;;;;;5093651;28;20036;-78
2021/10/28 01:29:34;;;;;;;28.85;6.95;;;;;;;;;;5093652;28;20032;-77
2021/10/28 01:32:00;;;;;;;46.20;6.32;;;;;;;;;;5085203;28;20167;-77
2021/10/28 01:34:26;;;;;;;51.45;7.00;;;;;;;;;;5073694;28;20439;-77
2021/10/28 01:36:52;;;;;;;19.50;6.82;;;;;;;;;;5072287;28;20061;-77
2021/10/28 01:39:22;;;;;;;17.35;6.93;;;;;;;;;;5073488;28;20090;-80
2021/10/28 01:41:48;;;;;;;19.73;6.72;;;;;;;;;;5073308;28;20047;-77
2021/10/28 01:44:13;;;;;;;30.30;5.72;;;;;;;;;;5073435;28;20382;-77
2021/10/28 01:46:39;;;;;;;41.67;7.18;;;;;;;;;;5073611;28;20051;-77
2021/10/28 01:49:04;;;;;;;30.42;7.15;;;;;;;;;;5073412;28;20036;-77
2021/10/28 01:51:30;;;;;;;30.95;7.00;;;;;;;;;;5073290;28;20047;-77
2021/10/28 01:53:55;;;;;;;52.72;7.60;;;;;;;;;;5072507;28;20383;-79
2021/10/28 01:56:21;;;;;;;9.30;6.40;;;;;;;;;;5073285;28;20046;-76
2021/10/28 01:58:50;;;;;;;31.20;7.22;;;;;;;;;;5073048;28;20493;-77
2021/10/28 02:01:16;;;;;;;26.50;7.03;;;;;;;;;;5073091;28;20142;-77
2021/10/28 02:03:42;;;;;;;37.17;6.78;;;;;;;;;;5088796;28;20060;-77
2021/10/28 02:06:07;;;;;;;14.82;5.95;;;;;;;;;;5073352;28;20028;-77
2021/10/28 02:08:32;;;;;;;14.05;6.90;;;;;;;;;;5073163;28;20473;-78
2021/10/28 02:10:58;;;;;;;12.48;5.95;;;;;;;;;;5087834;28;20489;-78
2021/10/28 02:13:25;;;;;;;19.73;6.50;;;;;;;;;;5093582;28;20114;-77
2021/10/28 02:15:51;;;;;;;22.23;6.45;;;;;;;;;;5093444;28;20066;-77
2021/10/28 02:18:16;;;;;;;22.08;6.53;;;;;;;;;;5088827;28;20048;-77
2021/10/28 02:20:42;;;;;;;20.35;6.95;;;;;;;;;;5073105;28;20040;-77
2021/10/28 02:23:09;;;;;;;50.45;6.55;;;;;;;;;;5072695;28;20070;-77
2021/10/28 02:25:35;;;;;;;13.50;6.50;;;;;;;;;;5072555;28;20425;-79
2021/10/28 02:28:02;;;;;;;18.75;6.43;;;;;;;;;;5071657;28;20041;-77
2021/10/28 02:30:28;;;;;;;11.38;6.32;;;;;;;;;;5073294;28;20041;-77
2021/10/28 02:32:53;;;;;;;33.47;7.60;;;;;;;;;;5072282;28;20064;-77
2021/10/28 02:35:19;;;;;;;58.80;7.35;;;;;;;;;;5072549;28;20121;-77
2021/10/28 02:37:46;;;;;;;32.67;6.63;;;;;;;;;;5086745;28;20077;-78
2021/10/28 02:40:12;;;;;;;34.70;7.22;;;;;;;;;;5096544;28;20066;-78
2021/10/28 02:42:39;;;;;;;38.45;7.18;;;;;;;;;;5097080;28;20040;-77
2021/10/28 02:45:06;;;;;;;30.65;7.55;;;;;;;;;;5095857;28;20126;-77
2021/10/28 02:47:31;;;;;;;47.72;8.20;;;;;;;;;;5097029;28;20044;-77
2021/10/28 02:49:57;;;;;;;40.25;8.38;;;;;;;;;;5095902;28;20024;-77
2021/10/28 02:52:23;;;;;;;46.08;8.13;;;;;;;;;;5096355;28;20086;-78
2021/10/28 02:54:49;;;;;;;48.88;8.23;;;;;;;;;;5094814;28;20465;-77
2021/10/28 02:57:14;;;;;;;14.60;7.80;;;;;;;;;;5096764;28;20070;-77
2021/10/28 02:59:39;;;;;;;69.25;7.78;;;;;;;;;;5096595;28;20076;-77
2021/10/28 03:02:05;;;;;;;45.28;7.70;;;;;;;;;;5095269;28;20063;-77
2021/10/28 03:04:30;;;;;;;12.10;7.82;;;;;;;;;;5096824;28;20055;-77
2021/10/28 03:06:56;;;;;;;30.83;8.07;;;;;;;;;;5096753;28;20520;-77
2021/10/28 03:09:25;;;;;;;24.98;8.00;;;;;;;;;;5096395;28;20067;-77
2021/10/28 03:11:54;;;;;;;17.05;7.97;;;;;;;;;;5096319;28;20036;-77
2021/10/28 03:14:24;;;;;;;16.00;7.05;;;;;;;;;;5096297;28;20404;-78
2021/10/28 03:19:31;;;;;;;26.17;7.93;;;;;;;;;;5095574;28;20043;-77
2021/10/28 03:27:28;;;;;;;20.70;8.40;;;;;;;;;;5096094;28;20062;-77
2021/10/28 03:29:55;;;;;;;44.22;7.88;;;;;;;;;;5096380;28;20449;-78
2021/10/28 03:32:22;;;;;;;18.70;9.18;;;;;;;;;;5094389;28;20036;-77
2021/10/28 03:34:51;;;;;;;15.32;8.55;;;;;;;;;;5096265;28;20039;-77
2021/10/28 03:51:14;;;;;;;16.02;8.45;;;;;;;;;;5095688;28;20028;-77
2021/10/28 03:53:17;;;;;;;41.65;8.90;;;;;;;;;;5090337;28;20056;-78
2021/10/28 04:20:33;;;;;;;16.30;7.82;;;;;;;;;;5094503;28;20571;-78
2021/10/28 04:31:14;;;;;;;28.63;8.73;;;;;;;;;;5115343;28;20044;-78
2021/10/28 04:33:42;;;;;;;33.13;9.15;;;;;;;;;;5115139;28;20043;-78
2021/10/28 04:36:10;;;;;;;33.13;9.30;;;;;;;;;;5114214;28;20035;-78
2021/10/28 04:38:35;;;;;;;22.13;9.05;;;;;;;;;;5114070;28;20032;-78
2021/10/28 04:41:01;;;;;;;32.25;8.82;;;;;;;;;;5114681;28;20517;-78
2021/10/28 04:43:26;;;;;;;14.38;8.50;;;;;;;;;;5114714;28;20039;-78
2021/10/28 04:45:52;;;;;;;18.48;8.75;;;;;;;;;;5114709;28;20040;-78
2021/10/28 04:48:17;;;;;;;25.90;9.13;;;;;;;;;;5115031;28;20077;-77
2021/10/28 04:50:43;;;;;;;21.30;8.20;;;;;;;;;;5114997;28;20108;-78
2021/10/28 04:53:08;;;;;;;21.15;9.10;;;;;;;;;;5114746;28;20119;-77
2021/10/28 04:55:34;;;;;;;22.58;8.75;;;;;;;;;;5112708;28;20106;-77
2021/10/28 04:57:59;;;;;;;18.92;8.68;;;;;;;;;;5114295;28;20499;-78
2021/10/28 05:00:25;;;;;;;23.70;9.73;;;;;;;;;;5114687;28;20034;-78
2021/10/28 05:02:50;;;;;;;20.45;9.82;;;;;;;;;;5114477;27;20028;-77
2021/10/28 05:05:16;;;;;;;23.88;8.70;;;;;;;;;;5114930;28;20031;-77
2021/10/28 05:07:41;;;;;;;50.08;9.10;;;;;;;;;;5114570;28;20489;-78
2021/10/28 05:10:07;;;;;;;18.80;8.50;;;;;;;;;;5114314;28;20119;-77
2021/10/28 05:12:33;;;;;;;13.13;8.35;;;;;;;;;;5114598;28;20028;-78
2021/10/28 05:14:59;;;;;;;25.23;9.13;;;;;;;;;;5111972;28;20036;-78
2021/10/28 05:17:24;;;;;;;21.08;9.27;;;;;;;;;;5114547;28;20020;-78
2021/10/28 05:19:50;;;;;;;49.70;9.38;;;;;;;;;;5114446;28;20043;-78
2021/10/28 05:22:17;;;;;;;19.70;8.75;;;;;;;;;;5113261;28;20063;-78
2021/10/28 05:24:42;;;;;;;20.13;8.98;;;;;;;;;;5114493;28;20046;-78
2021/10/28 05:27:07;;;;;;;25.75;9.18;;;;;;;;;;5114382;28;20043;-78
2021/10/28 05:29:33;;;;;;;36.90;8.75;;;;;;;;;;5113563;28;20035;-78
2021/10/28 05:31:58;;;;;;;29.52;9.25;;;;;;;;;;5114361;28;20042;-77
2021/10/28 05:34:24;;;;;;;14.52;8.60;;;;;;;;;;5114138;28;20035;-78
2021/10/28 05:36:49;;;;;;;23.67;8.75;;;;;;;;;;5113984;27;20037;-77
2021/10/28 05:39:15;;;;;;;13.30;7.72;;;;;;;;;;5113966;28;20089;-78
2021/10/28 05:41:40;;;;;;;15.52;8.77;;;;;;;;;;5114041;28;20058;-77
2021/10/28 05:44:06;;;;;;;24.00;9.40;;;;;;;;;;5107886;28;20058;-78
2021/10/28 05:46:31;;;;;;;12.90;8.43;;;;;;;;;;5093777;28;20035;-78
2021/10/28 05:48:57;;;;;;;19.08;8.52;;;;;;;;;;5092402;28;20043;-78
2021/10/28 05:51:24;;;;;;;76.78;9.40;;;;;;;;;;5090607;28;20035;-80
2021/10/28 05:53:50;;;;;;;36.38;10.25;;;;;;;;;;5090639;28;20028;-78
2021/10/28 05:56:16;;;;;;;54.55;10.77;;;;;;;;;;5092173;28;20042;-78
2021/10/28 05:58:41;;;;;;;95.57;11.05;;;;;;;;;;5092117;28;20036;-76
2021/10/28 06:01:07;;;;;;;139.13;12.05;;;;;;;;;;5093644;28;20040;-78
2021/10/28 06:03:32;;;;;;;115.22;11.80;;;;;;;;;;5093352;28;20038;-77
2021/10/28 06:05:59;;;;;;;203.70;11.68;;;;;;;;;;5093090;28;20040;-76
2021/10/28 06:08:24;;;;;;;101.80;10.18;;;;;;;;;;5093167;28;20053;-78
2021/10/28 06:10:50;;;;;;;157.55;12.02;;;;;;;;;;5096834;28;20043;-77
2021/10/28 06:13:15;;;;;;;153.35;10.77;;;;;;;;;;5099914;28;20031;-77
2021/10/28 06:15:41;;;;;;;47.60;10.65;;;;;;;;;;5098217;28;20044;-76
2021/10/28 06:20:42;;;;;;;219.88;12.88;;;;;;;;;;5099943;28;20031;-78
2021/10/28 06:23:07;;;;;;;105.75;11.00;;;;;;;;;;5099670;28;20534;-78
2021/10/28 06:25:33;;;;;;;68.65;12.55;;;;;;;;;;5079736;28;20049;-77
2021/10/28 06:27:59;;;;;;;55.22;9.85;;;;;;;;;;5079530;28;20123;-77
2021/10/28 06:30:24;;;;;;;175.70;12.32;;;;;;;;;;5079204;28;20072;-77
2021/10/28 06:32:56;;;;;;;287.60;12.30;;;;;;;;;;5079542;28;20028;-77
2021/10/28 06:35:24;;;;;;;18.42;8.07;;;;;;;;;;5079517;28;20035;-77
2021/10/28 06:37:50;;;;;;;89.88;10.55;;;;;;;;;;5079508;28;20036;-76
2021/10/28 06:40:19;;;;;;;183.70;12.85;;;;;;;;;;5079765;28;20048;-78
2021/10/28 06:42:45;;;;;;;190.00;12.07;;;;;;;;;;5081184;28;20036;-78
2021/10/28 06:45:11;;;;;;;292.98;13.10;;;;;;;;;;5080453;28;20036;-77
2021/10/28 06:47:37;;;;;;;246.35;11.73;;;;;;;;;;5079868;28;20443;-77
2021/10/28 06:50:07;;;;;;;42.97;10.45;;;;;;;;;;5079909;28;20433;-77
2021/10/28 06:52:57;;;;;;;42.40;10.20;;;;;;;;;;5078219;28;20024;-77
2021/10/28 07:03:23;;;;;;;144.00;9.75;;;;;;;;;;5099656;28;20036;-77
2021/10/28 07:05:49;;;;;;;207.32;11.60;;;;;;;;;;5098251;28;20035;-77
2021/10/28 07:08:15;;;;;;;181.73;11.77;;;;;;;;;;5099683;28;20055;-76
2021/10/28 07:10:41;;;;;;;163.77;11.85;;;;;;;;;;5099456;28;20513;-76
2021/10/28 07:13:20;;;;;;;274.92;12.15;;;;;;;;;;5099137;28;20472;-77
2021/10/28 07:16:39;;;;;;;35.70;9.88;;;;;;;;;;5099340;28;20381;-77
2021/10/28 07:18:45;;;;;;;118.43;12.43;;;;;;;;;;5098194;28;20063;-77
2021/10/28 07:21:28;;;;;;;45.50;10.65;;;;;;;;;;5097237;28;20036;-76
2021/10/28 07:24:17;;;;;;;70.72;10.38;;;;;;;;;;5094849;28;20036;-77
2021/10/28 07:35:00;;;;;;;208.93;11.20;;;;;;;;;;5095779;28;20035;-78
2021/10/28 08:19:00;;;;;;;16.10;8.88;;;;;;;;;;5071179;28;20043;-76
2021/10/28 08:21:46;;;;;;;35.33;8.77;;;;;;;;;;5074541;28;20044;-77
2021/10/28 08:29:38;;;;;;;42.55;8.65;;;;;;;;;;5094919;28;20043;-76
2021/10/28 08:32:06;;;;;;;17.77;8.43;;;;;;;;;;5093595;28;20043;-76
2021/10/28 08:34:35;;;;;;;22.80;8.43;;;;;;;;;;5094326;28;20111;-74
2021/10/28 08:37:14;;;;;;;13.98;8.40;;;;;;;;;;5093235;28;20051;-75
2021/10/28 08:39:51;;;;;;;20.98;8.48;;;;;;;;;;5094291;28;20585;-76
2021/10/28 08:42:20;;;;;;;28.08;8.80;;;;;;;;;;5094273;28;20032;-76
2021/10/28 08:44:49;;;;;;;9.85;8.10;;;;;;;;;;5094563;28;20047;-75
2021/10/28 08:47:16;;;;;;;10.07;7.60;;;;;;;;;;5094523;28;20043;-74
2021/10/28 08:49:59;;;;;;;38.80;8.68;;;;;;;;;;5094653;28;20044;-74
2021/10/28 09:31:59;;;;;;;52.10;9.20;;;;;;;;;;5093280;28;20028;-76
2021/10/28 09:34:41;;;;;;;206.65;11.98;;;;;;;;;;5083948;28;20035;-78
2021/10/28 09:46:12;;;;;;;16.77;11.57;;;;;;;;;;5075587;28;20416;-79
2021/10/28 09:51:12;;;;;;;199.98;14.60;;;;;;;;;;5075159;28;20036;-77
2021/10/28 09:54:17;;;;;;;36.63;15.77;;;;;;;;;;5083084;28;20043;-77
2021/10/28 09:59:43;;;;;;;32.00;12.32;;;;;;;;;;5091134;28;20024;-78
2021/10/28 10:02:35;;;;;;;25.73;13.63;;;;;;;;;;5077779;28;20037;-79
2021/10/28 10:05:05;;;;;;;27.33;13.43;;;;;;;;;;5087569;28;20029;-80
2021/10/28 10:07:31;;;;;;;52.45;14.57;;;;;;;;;;5118604;28;20039;-80
2021/10/28 10:09:58;;;;;;;39.22;15.75;;;;;;;;;;5118770;28;20500;-79
2021/10/28 10:12:24;;;;;;;22.80;15.20;;;;;;;;;;5116277;28;20040;-79
2021/10/28 10:14:50;;;;;;;20.65;13.90;;;;;;;;;;5100066;28;20528;-79
2021/10/28 10:17:18;;;;;;;54.22;14.82;;;;;;;;;;5099024;28;20038;-79
2021/10/28 10:19:48;;;;;;;27.98;13.27;;;;;;;;;;5098297;28;20056;-79
2021/10/28 11:19:43;;;;;;;15.98;12.63;;;;;;;;;;5095620;28;20039;-76
2021/10/28 11:25:34;;;;;;;16.15;11.13;;;;;;;;;;5095054;28;20093;-76
2021/10/28 11:27:33;;;;;;;14.32;11.40;;;;;;;;;;5096268;28;20385;-76
2021/10/28 11:32:46;;;;;;;15.27;10.52;;;;;;;;;;5096132;28;20032;-76
2021/10/28 12:17:03;;;;;;;9.40;6.22;;;;;;;;;;5095317;28;20031;-75
2021/10/28 13:06:58;;;;;;;5.95;3.70;;;;;;;;;;5094353;28;20040;-76
2021/10/28 13:50:38;;;;;;;7.45;2.15;;;;;;;;;;5093235;28;20028;-74
2021/10/28 14:39:05;;;;;;;6.00;2.00;;;;;;;;;;5096993;28;20044;-73
2021/10/28 15:03:27;;;;;;;60.25;29.05;;;;;;;;;;5096668;28;20032;-73
2021/10/28 15:33:49;;;;;;;12.90;4.72;;;;;;;;;;5095829;28;20118;-76
2021/10/28 15:36:52;;;;;;;9.27;4.28;;;;;;;;;;5094962;28;20043;-75
2021/10/28 15:38:59;;;;;;;17.70;9.30;;;;;;;;;;5091665;28;20138;-77
2021/10/28 15:55:10;;;;;;;6.63;3.58;;;;;;;;;;5095693;28;20066;-75
2021/10/28 16:22:11;;;;;;;12.68;3.90;;;;;;;;;;5095220;28;20036;-76
2021/10/28 16:24:36;;;;;;;19.05;6.57;;;;;;;;;;5093746;28;20047;-76
2021/10/28 16:27:04;;;;;;;12.38;6.97;;;;;;;;;;5095103;28;20040;-75
2021/10/28 16:29:29;;;;;;;14.77;6.57;;;;;;;;;;5093966;28;20043;-75
2021/10/28 16:31:55;;;;;;;14.65;5.72;;;;;;;;;;5094790;28;20024;-76
2021/10/28 16:34:21;;;;;;;8.50;4.55;;;;;;;;;;5094961;28;20383;-75
2021/10/28 16:36:48;;;;;;;6.47;3.83;;;;;;;;;;5094759;28;20047;-76
2021/10/28 16:39:14;;;;;;;6.88;2.88;;;;;;;;;;5095624;28;20036;-76
2021/10/28 16:41:43;;;;;;;6.38;3.33;;;;;;;;;;5094730;28;20048;-77
2021/10/28 16:44:09;;;;;;;6.72;3.60;;;;;;;;;;5095187;28;20486;-76
2021/10/28 16:46:36;;;;;;;5.85;3.75;;;;;;;;;;5095244;28;20032;-74
2021/10/28 16:49:02;;;;;;;14.65;3.83;;;;;;;;;;5094382;28;20110;-77
2021/10/28 16:51:27;;;;;;;9.05;5.13;;;;;;;;;;5095917;28;20115;-77
2021/10/28 16:53:54;;;;;;;16.42;9.15;;;;;;;;;;5094961;28;20454;-78
2021/10/28 16:56:19;;;;;;;20.58;11.93;;;;;;;;;;5094787;28;20461;-74
2021/10/28 16:58:45;;;;;;;15.13;10.65;;;;;;;;;;5094724;28;20040;-75
2021/10/28 17:01:11;;;;;;;18.20;11.93;;;;;;;;;;5094548;28;20036;-75
2021/10/28 17:03:37;;;;;;;24.90;12.23;;;;;;;;;;5094492;28;20032;-75
2021/10/28 17:06:03;;;;;;;20.30;12.32;;;;;;;;;;5094555;28;20027;-76
2021/10/28 17:08:29;;;;;;;19.98;11.95;;;;;;;;;;5094054;28;20112;-75
2021/10/28 17:10:55;;;;;;;17.13;12.18;;;;;;;;;;5093033;28;20120;-76
2021/10/28 17:13:21;;;;;;;19.20;11.55;;;;;;;;;;5094197;28;20040;-75
2021/10/28 17:15:47;;;;;;;22.88;12.65;;;;;;;;;;5093176;28;20036;-75
2021/10/28 17:18:13;;;;;;;16.23;11.50;;;;;;;;;;5092700;28;20031;-75
2021/10/28 17:20:39;;;;;;;15.20;11.70;;;;;;;;;;5093147;28;20470;-74
2021/10/28 17:23:06;;;;;;;14.07;11.15;;;;;;;;;;5094080;28;20024;-74
2021/10/28 17:25:38;;;;;;;16.77;10.85;;;;;;;;;;5093867;28;20420;-75
2021/10/28 17:28:03;;;;;;;19.98;12.18;;;;;;;;;;5093997;28;20082;-75
2021/10/28 17:30:29;;;;;;;16.15;12.07;;;;;;;;;;5093840;28;20063;-75
2021/10/28 17:32:54;;;;;;;14.07;11.23;;;;;;;;;;5093482;28;20035;-75
2021/10/28 17:35:20;;;;;;;19.52;11.85;;;;;;;;;;5093805;28;20028;-74
2021/10/28 17:37:45;;;;;;;15.57;11.07;;;;;;;;;;5093496;28;20485;-73
2021/10/28 17:40:10;;;;;;;16.55;11.93;;;;;;;;;;5093388;28;20113;-74
2021/10/28 17:42:38;;;;;;;18.48;13.73;;;;;;;;;;5093497;28;20535;-75
2021/10/28 17:45:04;;;;;;;23.33;13.88;;;;;;;;;;5092607;28;20138;-75
2021/10/28 17:47:30;;;;;;;16.23;12.13;;;;;;;;;;5093708;28;20019;-74
2021/10/28 17:49:56;;;;;;;19.35;13.02;;;;;;;;;;5092398;28;20397;-74
2021/10/28 17:52:22;;;;;;;17.30;12.52;;;;;;;;;;5092879;28;20024;-74
2021/10/28 17:54:48;;;;;;;24.25;14.57;;;;;;;;;;5093371;28;20115;-75
2021/10/28 17:57:14;;;;;;;20.42;13.45;;;;;;;;;;5093068;28;20043;-74
2021/10/28 17:59:42;;;;;;;19.92;14.48;;;;;;;;;;5093176;28;20046;-74
2021/10/28 18:02:08;;;;;;;20.17;14.05;;;;;;;;;;5093348;28;20119;-74
2021/10/28 18:04:35;;;;;;;19.77;14.20;;;;;;;;;;5093399;28;20069;-74
2021/10/28 18:07:01;;;;;;;20.55;14.45;;;;;;;;;;5091516;28;20040;-75
2021/10/28 18:09:27;;;;;;;17.48;13.07;;;;;;;;;;5092766;28;20043;-74
2021/10/28 18:11:54;;;;;;;19.90;13.73;;;;;;;;;;5093468;28;20487;-72
2021/10/28 18:14:23;;;;;;;22.52;13.05;;;;;;;;;;5092209;28;20096;-73
2021/10/28 18:16:49;;;;;;;19.60;14.82;;;;;;;;;;5093276;28;20048;-73
2021/10/28 18:19:15;;;;;;;18.40;13.95;;;;;;;;;;5092485;28;20154;-73
2021/10/28 18:21:43;;;;;;;18.60;13.20;;;;;;;;;;5093069;28;20490;-73
2021/10/28 18:24:09;;;;;;;18.75;13.15;;;;;;;;;;5074401;28;20028;-73
2021/10/28 18:26:35;;;;;;;19.70;14.20;;;;;;;;;;5093084;28;20038;-73
2021/10/28 18:29:01;;;;;;;18.58;14.10;;;;;;;;;;5091896;28;20486;-73
2021/10/28 18:31:28;;;;;;;18.88;14.30;;;;;;;;;;5092805;28;20043;-73
2021/10/28 18:33:57;;;;;;;20.95;14.07;;;;;;;;;;5092369;28;20583;-73
2021/10/28 18:36:26;;;;;;;20.17;14.85;;;;;;;;;;5091760;28;20036;-73
2021/10/28 18:38:52;;;;;;;21.73;14.93;;;;;;;;;;5093152;28;20062;-73
2021/10/28 18:41:20;;;;;;;23.77;16.00;;;;;;;;;;5091776;28;20509;-73
2021/10/28 18:43:46;;;;;;;24.70;15.38;;;;;;;;;;5092956;28;20371;-73
2021/10/28 18:46:14;;;;;;;21.55;14.75;;;;;;;;;;5091951;28;20446;-73
2021/10/28 18:48:39;;;;;;;19.95;15.00;;;;;;;;;;5093102;28;20536;-73
2021/10/28 18:51:05;;;;;;;20.25;15.45;;;;;;;;;;5092174;28;20059;-73
2021/10/28 18:53:37;;;;;;;25.23;16.75;;;;;;;;;;5092949;28;20036;-73
2021/10/28 18:56:04;;;;;;;23.42;16.38;;;;;;;;;;5092831;28;20045;-73
2021/10/28 18:58:29;;;;;;;23.95;17.27;;;;;;;;;;5091806;28;20358;-73
2021/10/28 19:00:55;;;;;;;26.40;19.10;;;;;;;;;;5092741;28;20035;-73
2021/10/28 19:03:21;;;;;;;23.45;17.88;;;;;;;;;;5090588;28;20039;-73
2021/10/28 19:05:46;;;;;;;24.67;17.70;;;;;;;;;;5092899;28;20622;-73
2021/10/28 19:08:13;;;;;;;23.63;17.48;;;;;;;;;;5091286;28;20043;-73
2021/10/28 19:10:38;;;;;;;24.08;17.60;;;;;;;;;;5090511;28;20044;-73
2021/10/28 19:13:04;;;;;;;24.92;17.92;;;;;;;;;;5091082;28;20119;-73
2021/10/28 19:15:29;;;;;;;25.67;18.83;;;;;;;;;;5091728;28;20048;-73
2021/10/28 19:17:56;;;;;;;25.17;19.05;;;;;;;;;;5094660;28;20066;-73
2021/10/28 19:20:21;;;;;;;26.98;19.58;;;;;;;;;;5086357;28;20040;-73
2021/10/28 19:22:47;;;;;;;22.77;17.60;;;;;;;;;;5085368;28;20074;-73
2021/10/28 19:25:13;;;;;;;25.85;18.17;;;;;;;;;;5084932;28;20028;-73
2021/10/28 19:27:39;;;;;;;29.25;20.15;;;;;;;;;;5085691;28;20363;-73
2021/10/28 19:32:57;;;;;;;30.45;19.02;;;;;;;;;;5083505;28;20035;-72
2021/10/28 19:35:24;;;;;;;28.23;20.63;;;;;;;;;;5083662;28;20532;-73
2021/10/28 19:38:40;;;;;;;25.50;18.17;;;;;;;;;;5084319;28;20089;-73
2021/10/28 19:40:54;;;;;;;25.88;17.40;;;;;;;;;;5085566;28;20055;-72
2021/10/28 19:48:31;;;;;;;29.10;19.27;;;;;;;;;;5083752;28;20028;-73
2021/10/28 19:50:57;;;;;;;28.23;18.55;;;;;;;;;;5084837;28;20436;-74
2021/10/28 19:53:23;;;;;;;32.00;18.98;;;;;;;;;;5082487;28;20036;-73
2021/10/28 19:55:50;;;;;;;28.58;19.95;;;;;;;;;;5082321;28;20097;-73
2021/10/28 19:58:22;;;;;;;25.63;17.45;;;;;;;;;;5085940;28;20035;-74
2021/10/28 20:00:52;;;;;;;31.92;18.85;;;;;;;;;;5080236;28;20024;-73
2021/10/28 20:05:49;;;;;;;29.73;18.75;;;;;;;;;;5076974;28;20079;-73
2021/10/28 20:21:26;;;;;;;25.95;16.88;;;;;;;;;;5093932;28;20130;-73
2021/10/28 20:23:52;;;;;;;27.73;18.17;;;;;;;;;;5095110;28;20116;-73
2021/10/28 20:26:17;;;;;;;30.67;19.95;;;;;;;;;;5094459;28;20042;-73
2021/10/28 20:28:47;;;;;;;32.35;17.98;;;;;;;;;;5094129;28;20031;-73
2021/10/28 20:31:14;;;;;;;27.40;19.15;;;;;;;;;;5093710;28;20100;-73
2021/10/28 20:33:44;;;;;;;24.17;17.92;;;;;;;;;;5095035;28;20044;-73
2021/10/28 20:38:36;;;;;;;27.95;17.05;;;;;;;;;;5095028;28;20481;-73
2021/10/28 20:41:01;;;;;;;31.95;18.25;;;;;;;;;;5094392;28;20057;-73
2021/10/28 20:43:26;;;;;;;23.33;17.48;;;;;;;;;;5094868;28;20101;-73
2021/10/28 20:45:52;;;;;;;28.65;18.10;;;;;;;;;;5093454;28;20032;-73
2021/10/28 20:48:18;;;;;;;27.25;17.38;;;;;;;;;;5094436;28;20050;-73
2021/10/28 20:50:43;;;;;;;25.95;17.20;;;;;;;;;;5093132;28;20039;-73
2021/10/28 20:53:09;;;;;;;28.63;18.52;;;;;;;;;;5094408;28;20040;-73
2021/10/28 20:55:35;;;;;;;25.58;18.00;;;;;;;;;;5094203;28;20370;-73
2021/10/28 20:58:00;;;;;;;30.10;20.20;;;;;;;;;;5094440;28;20036;-73
2021/10/28 21:00:26;;;;;;;31.85;18.83;;;;;;;;;;5092946;28;20047;-73
2021/10/28 21:02:53;;;;;;;28.90;19.02;;;;;;;;;;5093159;28;20036;-73
2021/10/28 21:05:22;;;;;;;28.92;18.73;;;;;;;;;;5094397;28;20373;-73
2021/10/28 21:07:50;;;;;;;30.13;19.52;;;;;;;;;;5094468;28;20038;-73
2021/10/28 21:10:21;;;;;;;30.50;19.27;;;;;;;;;;5093171;28;20036;-73
2021/10/28 21:12:46;;;;;;;28.13;18.98;;;;;;;;;;5094211;28;20092;-73
2021/10/28 21:15:12;;;;;;;25.30;18.42;;;;;;;;;;5094268;28;20040;-73
2021/10/28 21:17:38;;;;;;;27.75;18.55;;;;;;;;;;5094155;28;20127;-73
2021/10/28 21:20:06;;;;;;;28.50;18.67;;;;;;;;;;5093778;28;20066;-73
2021/10/28 21:22:33;;;;;;;30.27;18.48;;;;;;;;;;5092778;28;20028;-73
2021/10/28 21:24:58;;;;;;;29.10;18.73;;;;;;;;;;5094202;28;20517;-73
2021/10/28 21:27:23;;;;;;;26.60;17.67;;;;;;;;;;5092663;28;20049;-73
2021/10/28 21:29:49;;;;;;;30.35;18.20;;;;;;;;;;5093824;28;20027;-73
2021/10/28 21:32:15;;;;;;;34.42;21.00;;;;;;;;;;5093514;28;20055;-73
2021/10/28 21:34:44;;;;;;;28.23;19.20;;;;;;;;;;5092283;28;20044;-73
2021/10/28 21:37:11;;;;;;;34.28;20.73;;;;;;;;;;5093741;28;20039;-73
2021/10/28 21:39:39;;;;;;;32.85;19.75;;;;;;;;;;5093105;28;20036;-73
2021/10/28 21:42:05;;;;;;;31.90;19.15;;;;;;;;;;5073409;28;20044;-73
2021/10/28 21:44:32;;;;;;;30.52;19.02;;;;;;;;;;5071877;28;20113;-73
2021/10/28 21:46:57;;;;;;;28.60;18.35;;;;;;;;;;5073404;28;20036;-73
2021/10/28 21:49:24;;;;;;;30.42;19.33;;;;;;;;;;5073577;28;20101;-73
2021/10/28 21:51:52;;;;;;;29.75;18.42;;;;;;;;;;5073210;28;20056;-73
2021/10/28 21:57:12;;;;;;;31.30;19.80;;;;;;;;;;5072030;28;20040;-73
2021/10/28 21:59:58;;;;;;;35.90;19.02;;;;;;;;;;5072234;28;20040;-73
2021/10/28 22:26:40;;;;;;;36.78;21.45;;;;;;;;;;5072844;28;20029;-73
2021/10/28 22:29:06;;;;;;;35.17;20.95;;;;;;;;;;5072197;28;20401;-73
2021/10/28 22:31:31;;;;;;;34.58;21.13;;;;;;;;;;5072777;28;20064;-73
2021/10/28 22:33:57;;;;;;;32.45;20.48;;;;;;;;;;5072598;28;20033;-73
2021/10/28 22:37:05;;;;;;;34.15;20.38;;;;;;;;;;5072899;28;20051;-73
2021/10/28 22:39:19;;;;;;;38.08;20.80;;;;;;;;;;5052473;28;20049;-73
2021/10/28 22:41:44;;;;;;;37.72;22.25;;;;;;;;;;5068995;28;20048;-73
2021/10/28 22:44:13;;;;;;;32.70;19.55;;;;;;;;;;5072780;28;20413;-73
2021/10/28 22:46:38;;;;;;;36.97;21.90;;;;;;;;;;5072599;28;20036;-73
2021/10/28 22:49:04;;;;;;;34.42;20.08;;;;;;;;;;5072306;28;20033;-73
2021/10/28 22:51:29;;;;;;;31.63;18.73;;;;;;;;;;5093031;28;20036;-73
2021/10/28 22:53:55;;;;;;;36.00;21.20;;;;;;;;;;5096147;28;20040;-73
2021/10/28 22:56:21;;;;;;;36.17;20.95;;;;;;;;;;5097092;28;20119;-73
2021/10/28 22:58:50;;;;;;;36.70;20.88;;;;;;;;;;5096870;28;20036;-73
2021/10/28 23:01:19;;;;;;;36.35;19.42;;;;;;;;;;5096938;28;20035;-73
2021/10/28 23:03:59;;;;;;;38.17;22.50;;;;;;;;;;5096670;28;20039;-73
2021/10/28 23:22:15;;;;;;;34.97;20.63;;;;;;;;;;5095288;28;20085;-73
2021/10/28 23:24:40;;;;;;;34.38;21.55;;;;;;;;;;5096055;28;20032;-73
2021/10/28 23:27:06;;;;;;;38.75;22.42;;;;;;;;;;5094947;28;20046;-73
2021/10/28 23:29:32;;;;;;;36.05;21.75;;;;;;;;;;5096101;28;20117;-73
2021/10/28 23:31:57;;;;;;;39.85;22.73;;;;;;;;;;5095886;28;20032;-73
2021/10/28 23:34:23;;;;;;;35.33;22.02;;;;;;;;;;5096197;28;20481;-73
2021/10/28 23:36:49;;;;;;;39.38;22.55;;;;;;;;;;5096269;28;20042;-73
2021/10/28 23:39:15;;;;;;;41.50;23.05;;;;;;;;;;5095877;28;20070;-73
2021/10/28 23:41:40;;;;;;;36.60;21.50;;;;;;;;;;5094850;28;20081;-73
2021/10/28 23:44:06;;;;;;;38.65;22.75;;;;;;;;;;5094547;28;20053;-73
2021/10/28 23:46:31;;;;;;;33.85;21.77;;;;;;;;;;5096055;28;20051;-73
2021/10/28 23:48:56;;;;;;;35.42;21.67;;;;;;;;;;5095884;28;20036;-73
2021/10/28 23:51:22;;;;;;;37.92;21.83;;;;;;;;;;5095721;28;20489;-73
2021/10/28 23:53:47;;;;;;;40.50;21.63;;;;;;;;;;5076629;28;20398;-73
2021/10/28 23:56:13;;;;;;;41.55;21.65;;;;;;;;;;5095629;28;20063;-73
2021/10/28 23:58:38;;;;;;;37.83;22.45;;;;;;;;;;5095324;28;20032;-73
